Aviation Digital Data Service (ADDS)

Output produced by METARs form (1322 UTC 21 August 2019)
found at http://www.aviationweather.gov/metar/data/
 
Forecast for: AGGH (HONIARA/HENDERSO, SB)
Text: TAF AGGH 211100Z 2112/2212 VRB03KT 9999 -SHRA SCT016 BKN100
Forecast period: 1200 UTC 21 August 2019 to 1200 UTC 22 August 2019
Forecast type: FROM: standard forecast or significant change
Winds: variable direction winds at 3 MPH (3 knots; 1.5 m/s)
Visibility: 6 or more miles 10+ km)
Ceiling: 10000 feet AGL
Clouds: scattered clouds at 1600 feet AGL
broken clouds at 10000 feet AGL
Weather: -SHRA  (light rain showers)
Text: PROB40 INTER 2112/2118 5000 TSSH BKN015 FEW016CB T 24 23 22 26 Q 1010 1008 1007 1009
Forecast period: 1200 to 1800 UTC 21 August 2019
Forecast type: TEMPORARY: The following changes expected for less than half the time period
Visibility: 3 miles (5 km)
Ceiling: 1500 feet AGL
Clouds: broken clouds at 1500 feet AGL
few clouds at 1600 feet AGL
Weather: SH TS  (showers, thunderstorm)